createdAt,value
2018-07-05T00:01:18.913Z,20.40
2018-07-05T00:04:03.914Z,20.40
2018-07-05T00:06:47.517Z,20.30
2018-07-05T00:09:27.101Z,20.40
2018-07-05T00:12:06.989Z,20.40
2018-07-05T00:14:47.653Z,20.40
2018-07-05T00:17:29.655Z,20.40
2018-07-05T00:20:12.055Z,20.40
2018-07-05T00:22:51.886Z,20.40
2018-07-05T00:25:33.642Z,20.40
2018-07-05T00:28:13.468Z,20.40
2018-07-05T00:30:53.394Z,20.40
2018-07-05T00:33:33.352Z,20.40
2018-07-05T00:36:17.784Z,20.40
2018-07-05T00:38:59.634Z,20.30
2018-07-05T00:41:45.321Z,20.20
2018-07-05T00:44:26.979Z,20.00
2018-07-05T00:47:09.658Z,19.80
2018-07-05T00:49:51.184Z,19.60
2018-07-05T00:52:30.894Z,19.50
2018-07-05T00:55:10.534Z,19.60
2018-07-05T00:57:50.194Z,19.60
2018-07-05T01:00:29.956Z,19.60
2018-07-05T01:03:12.861Z,19.50
2018-07-05T01:05:56.226Z,19.40
2018-07-05T01:11:11.680Z,19.20
2018-07-05T01:13:54.124Z,19.10
2018-07-05T01:16:39.376Z,19.00
2018-07-05T01:19:22.959Z,18.90
2018-07-05T01:22:05.732Z,18.90
2018-07-05T01:24:50.113Z,18.80
2018-07-05T01:27:29.874Z,18.80
2018-07-05T01:30:10.518Z,18.70
2018-07-05T01:35:28.655Z,18.60
2018-07-05T01:38:14.050Z,18.60
2018-07-05T01:43:46.499Z,18.50
2018-07-05T01:46:26.514Z,18.40
2018-07-05T01:49:19.094Z,18.40
2018-07-05T01:52:03.771Z,18.30
2018-07-05T01:54:44.418Z,18.30
2018-07-05T01:57:24.348Z,18.30
2018-07-05T02:00:09.519Z,18.20
2018-07-05T02:02:51.899Z,18.10
2018-07-05T02:05:34.493Z,18.00
2018-07-05T02:08:14.578Z,18.00
2018-07-05T02:10:54.298Z,18.00
2018-07-05T02:13:34.060Z,18.00
2018-07-05T02:16:15.724Z,18.00
2018-07-05T02:18:56.394Z,18.00
2018-07-05T02:21:37.145Z,18.00
2018-07-05T02:24:25.928Z,18.00
2018-07-05T02:27:06.774Z,18.00
2018-07-05T02:29:47.343Z,17.90
2018-07-05T02:32:29.536Z,17.80
2018-07-05T02:35:11.043Z,17.80
2018-07-05T02:37:56.365Z,17.70
2018-07-05T02:40:41.453Z,17.70
2018-07-05T02:46:21.385Z,17.60
2018-07-05T02:49:01.262Z,17.70
2018-07-05T02:51:41.033Z,17.70
2018-07-05T02:56:55.333Z,17.70
2018-07-05T02:59:38.568Z,17.60
2018-07-05T03:02:21.381Z,17.70
2018-07-05T03:05:02.389Z,17.60
2018-07-05T03:07:48.810Z,17.60
2018-07-05T03:10:34.205Z,17.70
2018-07-05T03:15:52.319Z,17.70
2018-07-05T03:21:25.073Z,17.80
2018-07-05T03:24:06.849Z,17.70
2018-07-05T03:26:47.323Z,17.60
2018-07-05T03:29:30.585Z,17.50
2018-07-05T03:32:11.202Z,17.40
2018-07-05T03:34:55.724Z,17.40
2018-07-05T03:37:35.402Z,17.30
2018-07-05T03:40:16.017Z,17.40
2018-07-05T03:42:55.935Z,17.40
2018-07-05T03:45:39.593Z,17.30
2018-07-05T03:48:20.235Z,17.20
2018-07-05T03:51:11.171Z,17.10
2018-07-05T03:56:45.557Z,16.90
2018-07-05T04:02:18.650Z,16.90
2018-07-05T04:04:58.383Z,16.90
2018-07-05T04:07:38.141Z,17.00
2018-07-05T04:10:18.766Z,17.10
2018-07-05T04:13:00.220Z,17.20
2018-07-05T04:15:41.017Z,17.20
2018-07-05T04:18:20.794Z,17.20
2018-07-05T04:21:00.466Z,17.20
2018-07-05T04:23:40.176Z,17.30
2018-07-05T04:26:21.931Z,17.20
2018-07-05T04:29:06.931Z,17.30
2018-07-05T04:31:46.670Z,17.30
2018-07-05T04:34:30.098Z,17.30
2018-07-05T04:37:13.760Z,17.20
2018-07-05T04:39:57.073Z,17.20
2018-07-05T04:42:37.857Z,17.20
2018-07-05T04:45:18.568Z,17.10
2018-07-05T04:47:59.856Z,17.10
2018-07-05T04:50:42.690Z,17.20
2018-07-05T04:53:26.672Z,17.30
2018-07-05T04:56:06.932Z,17.30
2018-07-05T04:58:48.051Z,17.30
2018-07-05T05:01:28.352Z,17.30
2018-07-05T05:04:08.960Z,17.30
2018-07-05T05:06:50.740Z,17.20
2018-07-05T05:09:33.800Z,17.20
2018-07-05T05:12:14.304Z,17.30
2018-07-05T05:17:48.472Z,17.70
2018-07-05T05:20:29.302Z,17.90
2018-07-05T05:23:09.832Z,18.00
2018-07-05T05:25:52.724Z,18.00
2018-07-05T05:36:43.807Z,18.40
2018-07-05T05:39:23.582Z,18.40
2018-07-05T05:42:03.168Z,18.50
2018-07-05T05:44:45.013Z,18.70
2018-07-05T05:47:25.016Z,18.70
2018-07-05T05:50:06.098Z,18.80
2018-07-05T05:52:46.106Z,19.10
2018-07-05T05:55:27.998Z,19.30
2018-07-05T05:58:11.377Z,19.50
2018-07-05T06:00:53.098Z,19.50
2018-07-05T06:03:32.902Z,19.60
2018-07-05T06:06:18.548Z,19.90
2018-07-05T06:08:59.243Z,20.00
2018-07-05T06:11:39.710Z,20.00
2018-07-05T06:14:22.979Z,19.70
2018-07-05T06:17:04.776Z,19.80
2018-07-05T06:19:48.870Z,19.80
2018-07-05T06:22:28.790Z,19.80
2018-07-05T06:25:08.988Z,19.50
2018-07-05T06:27:50.719Z,19.50
2018-07-05T06:30:34.592Z,19.50
2018-07-05T06:33:15.106Z,19.50
2018-07-05T06:35:55.495Z,19.70
2018-07-05T06:38:38.422Z,19.80
2018-07-05T06:41:19.608Z,19.50
2018-07-05T06:44:01.604Z,19.60
2018-07-05T06:46:41.422Z,19.80
2018-07-05T06:49:22.604Z,20.00
2018-07-05T06:52:03.472Z,20.10
2018-07-05T06:54:48.246Z,20.30
2018-07-05T06:57:28.988Z,20.50
2018-07-05T07:00:08.642Z,20.50
2018-07-05T07:02:48.401Z,20.30
2018-07-05T07:05:28.914Z,20.40
2018-07-05T07:13:56.755Z,20.40
2018-07-05T07:16:38.410Z,20.70
2018-07-05T07:19:25.224Z,21.10
2018-07-05T07:22:11.140Z,21.00
2018-07-05T07:24:51.762Z,20.80
2018-07-05T07:27:36.670Z,20.80
2018-07-05T07:30:16.355Z,21.00
2018-07-05T07:32:59.993Z,21.20
2018-07-05T07:35:43.492Z,21.10
2018-07-05T07:38:25.790Z,20.80
2018-07-05T07:41:06.402Z,20.80
2018-07-05T07:43:42.628Z,20.90
2018-07-05T07:46:12.002Z,20.60
2018-07-05T07:48:39.416Z,21.00
2018-07-05T07:51:06.844Z,21.40
2018-07-05T07:53:35.250Z,21.60
2018-07-05T07:56:02.712Z,21.80
2018-07-05T07:58:47.610Z,21.70
2018-07-05T08:01:33.497Z,21.60
2018-07-05T08:04:04.111Z,21.90
2018-07-05T08:06:31.557Z,22.20
2018-07-05T08:08:59.056Z,22.00
2018-07-05T08:11:27.407Z,21.90
2018-07-05T08:13:56.728Z,21.70
2018-07-05T08:16:25.112Z,21.60
2018-07-05T08:18:53.321Z,21.60
2018-07-05T08:21:20.648Z,21.70
2018-07-05T08:24:03.014Z,21.80
2018-07-05T08:26:31.522Z,21.50
2018-07-05T08:29:02.654Z,21.70
2018-07-05T08:31:33.224Z,21.60
2018-07-05T08:36:51.444Z,21.50
2018-07-05T08:39:25.000Z,21.90
2018-07-05T08:41:52.916Z,22.10
2018-07-05T08:44:22.164Z,22.30
2018-07-05T08:46:54.214Z,22.10
2018-07-05T08:52:11.469Z,22.80
2018-07-05T08:54:40.889Z,22.20
2018-07-05T08:57:09.190Z,21.90
2018-07-05T08:59:36.988Z,22.30
2018-07-05T09:02:06.313Z,22.40
2018-07-05T09:04:34.095Z,22.40
2018-07-05T09:07:01.483Z,22.40
2018-07-05T09:09:28.990Z,22.50
2018-07-05T09:12:07.126Z,22.90
2018-07-05T09:14:38.095Z,23.10
2018-07-05T09:17:09.482Z,23.10
2018-07-05T09:19:36.932Z,23.60
2018-07-05T09:22:04.378Z,23.50
2018-07-05T09:24:31.840Z,23.20
2018-07-05T09:26:59.312Z,23.40
2018-07-05T09:32:26.415Z,23.00
2018-07-05T09:34:53.708Z,23.10
2018-07-05T09:37:25.422Z,23.00
2018-07-05T09:39:54.686Z,23.50
2018-07-05T09:42:22.129Z,23.80
2018-07-05T09:44:51.433Z,23.80
2018-07-05T09:47:18.937Z,23.60
2018-07-05T09:49:46.406Z,23.80
2018-07-05T09:52:18.399Z,23.30
2018-07-05T09:54:47.788Z,23.40
2018-07-05T09:57:18.856Z,23.50
2018-07-05T09:59:48.206Z,23.70
2018-07-05T10:04:46.206Z,23.90
2018-07-05T10:07:17.012Z,24.10
2018-07-05T10:09:44.470Z,24.20
2018-07-05T10:12:11.920Z,24.30
2018-07-05T10:14:41.114Z,24.30
2018-07-05T10:17:15.102Z,24.20
2018-07-05T10:19:43.535Z,24.00
2018-07-05T10:22:11.939Z,23.90
2018-07-05T10:24:39.349Z,24.10
2018-07-05T10:27:07.635Z,24.30
2018-07-05T10:29:47.353Z,24.30
2018-07-05T10:32:27.134Z,24.20
2018-07-05T10:35:16.450Z,24.00
2018-07-05T10:37:45.816Z,24.50
2018-07-05T10:40:25.666Z,24.60
2018-07-05T10:43:05.588Z,24.20
2018-07-05T10:45:47.332Z,24.40
2018-07-05T10:48:26.950Z,24.70
2018-07-05T10:53:41.843Z,25.00
2018-07-05T10:56:21.682Z,25.00
2018-07-05T10:59:01.372Z,25.00
2018-07-05T11:01:45.664Z,24.80
2018-07-05T11:04:26.443Z,24.10
2018-07-05T11:07:08.206Z,24.70
2018-07-05T11:09:49.232Z,24.90
2018-07-05T11:12:31.910Z,24.90
2018-07-05T11:15:13.701Z,24.70
2018-07-05T11:17:53.801Z,24.70
2018-07-05T11:20:37.773Z,24.90
2018-07-05T11:26:10.628Z,25.30
2018-07-05T11:28:51.297Z,25.20
2018-07-05T11:31:33.834Z,25.50
2018-07-05T11:34:17.778Z,25.50
2018-07-05T11:36:57.528Z,25.50
2018-07-05T11:39:41.160Z,25.50
2018-07-05T11:42:24.072Z,25.50
2018-07-05T11:45:03.806Z,25.20
2018-07-05T11:47:43.578Z,25.10
2018-07-05T11:50:23.194Z,25.20
2018-07-05T11:53:03.886Z,25.30
2018-07-05T11:58:18.262Z,25.50
2018-07-05T12:01:00.069Z,25.70
2018-07-05T12:03:43.720Z,25.40
2018-07-05T12:06:26.666Z,25.70
2018-07-05T12:09:07.801Z,26.00
2018-07-05T12:11:50.236Z,25.60
2018-07-05T12:14:31.378Z,25.70
2018-07-05T12:17:11.182Z,25.30
2018-07-05T12:19:50.788Z,25.50
2018-07-05T12:22:31.610Z,25.60
2018-07-05T12:25:12.351Z,25.90
2018-07-05T12:27:52.080Z,26.00
2018-07-05T12:30:36.214Z,25.50
2018-07-05T12:33:29.570Z,25.50
2018-07-05T12:36:12.028Z,25.30
2018-07-05T12:38:51.830Z,25.20
2018-07-05T12:41:35.411Z,25.60
2018-07-05T12:44:14.977Z,25.80
2018-07-05T12:46:56.766Z,25.50
2018-07-05T12:49:36.617Z,25.70
2018-07-05T12:52:17.408Z,25.50
2018-07-05T12:55:01.338Z,25.30
2018-07-05T12:57:44.767Z,25.10
2018-07-05T13:00:27.336Z,25.40
2018-07-05T13:03:07.036Z,25.70
2018-07-05T13:08:40.924Z,26.40
2018-07-05T13:11:22.749Z,26.90
2018-07-05T13:14:16.075Z,26.90
2018-07-05T13:16:55.652Z,26.80
2018-07-05T13:19:36.597Z,26.30
2018-07-05T13:22:17.295Z,26.10
2018-07-05T13:25:02.218Z,25.90
2018-07-05T13:30:20.350Z,25.90
2018-07-05T13:32:59.765Z,26.20
2018-07-05T13:35:39.444Z,26.10
2018-07-05T13:38:22.578Z,26.10
2018-07-05T13:43:45.368Z,25.70
2018-07-05T13:46:24.994Z,25.70
2018-07-05T13:49:05.369Z,25.90
2018-07-05T13:51:45.028Z,25.80
2018-07-05T13:54:24.812Z,25.70
2018-07-05T13:57:09.632Z,26.00
2018-07-05T14:00:00.073Z,26.20
2018-07-05T14:02:41.951Z,26.30
2018-07-05T14:05:26.770Z,26.20
2018-07-05T14:08:07.450Z,26.00
2018-07-05T14:10:48.306Z,26.10
2018-07-05T14:13:30.308Z,26.10
2018-07-05T14:16:12.303Z,26.00
2018-07-05T14:18:52.262Z,26.10
2018-07-05T14:21:34.078Z,25.90
2018-07-05T14:24:16.594Z,26.00
2018-07-05T14:27:00.509Z,25.90
2018-07-05T14:29:41.304Z,26.00
2018-07-05T14:32:21.222Z,26.10
2018-07-05T14:35:02.796Z,26.10
2018-07-05T14:37:44.508Z,26.20
2018-07-05T14:40:28.015Z,26.20
2018-07-05T14:43:10.672Z,26.10
2018-07-05T14:45:51.972Z,26.20
2018-07-05T14:48:36.845Z,26.10
2018-07-05T14:51:20.231Z,26.30
2018-07-05T14:54:03.498Z,26.20
2018-07-05T14:56:48.288Z,26.40
2018-07-05T14:59:29.946Z,26.30
2018-07-05T15:02:10.035Z,26.10
2018-07-05T15:04:49.723Z,26.10
2018-07-05T15:07:30.382Z,25.90
2018-07-05T15:10:10.402Z,26.00
2018-07-05T15:12:50.208Z,26.00
2018-07-05T15:15:32.134Z,26.00
2018-07-05T15:18:12.976Z,25.90
2018-07-05T15:20:55.408Z,25.80
2018-07-05T15:23:34.965Z,26.10
2018-07-05T15:26:15.646Z,26.00
2018-07-05T15:29:00.336Z,26.00
2018-07-05T15:31:42.242Z,26.10
2018-07-05T15:34:22.127Z,26.20
2018-07-05T15:37:02.458Z,25.90
2018-07-05T15:39:44.598Z,25.60
2018-07-05T15:42:25.328Z,25.80
2018-07-05T15:45:08.434Z,25.90
2018-07-05T15:47:51.926Z,25.60
2018-07-05T15:50:32.032Z,25.50
2018-07-05T15:53:12.834Z,25.40
2018-07-05T15:55:58.108Z,25.30
2018-07-05T15:58:39.851Z,25.20
2018-07-05T16:01:23.826Z,25.40
2018-07-05T16:04:04.979Z,25.60
2018-07-05T16:06:44.833Z,25.80
2018-07-05T16:09:24.534Z,25.80
2018-07-05T16:12:04.535Z,25.80
2018-07-05T16:14:47.357Z,25.80
2018-07-05T16:17:27.238Z,25.50
2018-07-05T16:20:06.795Z,25.50
2018-07-05T16:22:48.043Z,25.70
2018-07-05T16:25:29.164Z,25.80
2018-07-05T16:28:09.696Z,25.70
2018-07-05T16:30:51.314Z,25.60
2018-07-05T16:33:33.621Z,25.40
2018-07-05T16:38:51.470Z,25.40
2018-07-05T16:41:32.272Z,25.50
2018-07-05T16:44:13.414Z,25.40
2018-07-05T16:46:58.900Z,25.30
2018-07-05T16:49:42.352Z,24.90
2018-07-05T16:52:24.134Z,24.80
2018-07-05T16:55:06.046Z,25.00
2018-07-05T16:57:45.754Z,25.00
2018-07-05T17:00:30.536Z,25.10
2018-07-05T17:03:10.480Z,25.10
2018-07-05T17:05:51.500Z,25.20
2018-07-05T17:08:36.330Z,24.90
2018-07-05T17:13:55.928Z,24.70
2018-07-05T17:16:35.599Z,24.80
2018-07-05T17:19:15.319Z,24.60
2018-07-05T17:21:56.006Z,24.60
2018-07-05T17:24:36.910Z,24.80
2018-07-05T17:27:16.735Z,24.80
2018-07-05T17:29:58.341Z,24.60
2018-07-05T17:32:44.649Z,24.50
2018-07-05T17:35:29.399Z,24.40
2018-07-05T17:38:12.299Z,24.50
2018-07-05T17:40:52.471Z,24.30
2018-07-05T17:43:32.473Z,24.20
2018-07-05T17:46:13.230Z,24.10
2018-07-05T17:48:58.042Z,24.10
2018-07-05T17:54:14.210Z,23.90
2018-07-05T17:56:54.131Z,24.00
2018-07-05T17:59:34.148Z,24.00
2018-07-05T18:02:13.828Z,23.80
2018-07-05T18:04:53.493Z,23.70
2018-07-05T18:07:35.161Z,23.60
2018-07-05T18:10:16.117Z,23.40
2018-07-05T18:12:55.870Z,23.50
2018-07-05T18:15:35.552Z,23.60
2018-07-05T18:18:19.472Z,23.60
2018-07-05T18:21:01.399Z,23.40
2018-07-05T18:23:41.323Z,23.40
2018-07-05T18:26:21.827Z,23.30
2018-07-05T18:29:03.417Z,23.20
2018-07-05T18:31:43.698Z,23.30
2018-07-05T18:34:24.497Z,23.30
2018-07-05T18:37:09.132Z,23.20
2018-07-05T18:39:49.725Z,23.10
2018-07-05T18:42:30.229Z,23.00
2018-07-05T18:45:11.239Z,23.00
2018-07-05T18:47:51.556Z,22.90
2018-07-05T18:50:31.310Z,22.90
2018-07-05T18:53:12.899Z,22.80
2018-07-05T18:55:52.702Z,22.60
2018-07-05T18:58:33.801Z,22.50
2018-07-05T19:01:14.571Z,22.50
2018-07-05T19:03:55.577Z,22.40
2018-07-05T19:06:35.263Z,22.20
2018-07-05T19:09:20.353Z,22.20
2018-07-05T19:12:00.948Z,22.10
2018-07-05T19:14:40.975Z,22.00
2018-07-05T19:17:20.842Z,22.10
2018-07-05T19:20:05.471Z,22.10
2018-07-05T19:22:48.736Z,21.90
2018-07-05T19:28:08.044Z,21.80
2018-07-05T19:30:49.566Z,21.70
2018-07-05T19:33:30.374Z,21.70
2018-07-05T19:36:14.678Z,21.50
2018-07-05T19:38:59.267Z,21.40
2018-07-05T19:41:39.034Z,21.30
2018-07-05T19:44:18.958Z,21.10
2018-07-05T19:46:58.952Z,21.00
2018-07-05T19:49:39.696Z,21.00
2018-07-05T19:52:20.737Z,21.00
2018-07-05T19:55:01.691Z,20.90
2018-07-05T19:57:42.578Z,20.80
2018-07-05T20:00:22.174Z,20.80
2018-07-05T20:03:01.889Z,20.80
2018-07-05T20:05:41.645Z,20.70
2018-07-05T20:08:25.155Z,20.60
2018-07-05T20:11:04.827Z,20.60
2018-07-05T20:13:45.481Z,20.50
2018-07-05T20:16:25.920Z,20.50
2018-07-05T20:19:07.847Z,20.40
2018-07-05T20:24:23.279Z,20.20
2018-07-05T20:27:06.790Z,20.10
2018-07-05T20:29:46.312Z,20.10
2018-07-05T20:32:27.203Z,20.10
2018-07-05T20:35:13.647Z,20.10
2018-07-05T20:37:54.351Z,20.00
2018-07-05T20:40:34.080Z,19.90
2018-07-05T20:43:14.910Z,19.80
2018-07-05T20:45:56.755Z,19.80
2018-07-05T20:48:43.413Z,19.80
2018-07-05T20:51:25.140Z,19.80
2018-07-05T20:54:04.771Z,19.80
2018-07-05T20:56:46.617Z,19.70
2018-07-05T20:59:26.471Z,19.60
2018-07-05T21:02:10.045Z,19.60
2018-07-05T21:04:50.815Z,19.50
2018-07-05T21:07:30.637Z,19.40
2018-07-05T21:10:10.541Z,19.40
2018-07-05T21:12:54.160Z,19.30
2018-07-05T21:18:28.307Z,19.20
2018-07-05T21:21:09.048Z,19.20
2018-07-05T21:23:54.606Z,19.20
2018-07-05T21:26:35.417Z,19.10
2018-07-05T21:29:15.223Z,19.20
2018-07-05T21:31:56.594Z,19.10
2018-07-05T21:34:39.074Z,19.10
2018-07-05T21:37:30.055Z,19.10
2018-07-05T21:40:15.377Z,19.00
2018-07-05T21:42:55.061Z,18.90
2018-07-05T21:45:36.344Z,18.90
2018-07-05T21:48:18.203Z,19.00
2018-07-05T21:51:00.137Z,19.00
2018-07-05T21:53:42.215Z,19.00
2018-07-05T21:56:22.957Z,18.80
2018-07-05T21:59:05.000Z,18.80
2018-07-05T22:04:23.978Z,18.60
2018-07-05T22:07:06.609Z,18.50
2018-07-05T22:09:53.515Z,18.50
2018-07-05T22:12:42.149Z,18.50
2018-07-05T22:15:23.817Z,18.50
2018-07-05T22:21:01.457Z,18.50
2018-07-05T22:23:46.961Z,18.50
2018-07-05T22:26:33.328Z,18.50
2018-07-05T22:33:37.321Z,18.50
2018-07-05T22:36:18.390Z,18.50
2018-07-05T22:38:59.110Z,18.50
2018-07-05T22:41:42.874Z,18.50
2018-07-05T22:44:27.538Z,18.50
2018-07-05T22:47:10.263Z,18.40
2018-07-05T22:49:54.910Z,18.40
2018-07-05T22:52:36.618Z,18.30
2018-07-05T22:55:16.371Z,18.40
2018-07-05T22:58:01.033Z,18.40
2018-07-05T23:00:40.685Z,18.40
2018-07-05T23:05:55.213Z,18.40
2018-07-05T23:08:44.153Z,18.40
2018-07-05T23:11:27.641Z,18.40
2018-07-05T23:14:09.101Z,18.30
2018-07-05T23:16:55.209Z,18.30
2018-07-05T23:19:34.951Z,18.30
2018-07-05T23:22:14.701Z,18.20
2018-07-05T23:25:01.985Z,18.10
2018-07-05T23:27:41.396Z,18.10
2018-07-05T23:30:24.748Z,18.00
2018-07-05T23:33:06.624Z,18.00
2018-07-05T23:35:52.649Z,18.00
2018-07-05T23:41:26.517Z,17.80
2018-07-05T23:44:09.795Z,17.80
2018-07-05T23:46:49.645Z,17.80
2018-07-05T23:49:29.323Z,17.70
2018-07-05T23:52:10.935Z,17.70
2018-07-05T23:54:50.664Z,17.70
2018-07-05T23:57:30.749Z,17.60
